sensor_id;sensor_type;location;lat;lon;timestamp;P1;durP1;ratioP1;P2;durP2;ratioP2
35632;SDS011;21754;48.216;-1.628;2023-04-23T00:00:41;22.52;;;3.10;;
35632;SDS011;21754;48.216;-1.628;2023-04-23T00:03:08;13.05;;;2.38;;
35632;SDS011;21754;48.216;-1.628;2023-04-23T00:05:35;20.77;;;3.67;;
35632;SDS011;21754;48.216;-1.628;2023-04-23T00:08:04;6.70;;;2.38;;
35632;SDS011;21754;48.216;-1.628;2023-04-23T00:10:30;11.68;;;2.08;;
35632;SDS011;21754;48.216;-1.628;2023-04-23T00:12:56;13.43;;;1.98;;
35632;SDS011;21754;48.216;-1.628;2023-04-23T00:15:22;10.35;;;3.58;;
35632;SDS011;21754;48.216;-1.628;2023-04-23T00:17:49;7.53;;;1.85;;
35632;SDS011;21754;48.216;-1.628;2023-04-23T00:20:15;12.40;;;2.97;;
35632;SDS011;21754;48.216;-1.628;2023-04-23T00:22:42;11.00;;;2.67;;
35632;SDS011;21754;48.216;-1.628;2023-04-23T00:25:25;11.30;;;2.25;;
35632;SDS011;21754;48.216;-1.628;2023-04-23T00:27:51;11.27;;;2.25;;
35632;SDS011;21754;48.216;-1.628;2023-04-23T00:30:17;17.27;;;4.28;;
35632;SDS011;21754;48.216;-1.628;2023-04-23T00:32:43;11.50;;;2.28;;
35632;SDS011;21754;48.216;-1.628;2023-04-23T00:35:10;9.07;;;2.28;;
35632;SDS011;21754;48.216;-1.628;2023-04-23T00:37:36;7.53;;;2.00;;
35632;SDS011;21754;48.216;-1.628;2023-04-23T00:40:02;2.60;;;1.63;;
35632;SDS011;21754;48.216;-1.628;2023-04-23T00:42:28;7.35;;;1.88;;
35632;SDS011;21754;48.216;-1.628;2023-04-23T00:44:54;14.30;;;2.42;;
35632;SDS011;21754;48.216;-1.628;2023-04-23T00:47:21;10.05;;;2.00;;
35632;SDS011;21754;48.216;-1.628;2023-04-23T00:49:47;8.05;;;2.28;;
35632;SDS011;21754;48.216;-1.628;2023-04-23T00:52:14;10.48;;;3.70;;
35632;SDS011;21754;48.216;-1.628;2023-04-23T00:54:43;10.15;;;2.10;;
35632;SDS011;21754;48.216;-1.628;2023-04-23T00:57:09;7.82;;;1.70;;
35632;SDS011;21754;48.216;-1.628;2023-04-23T00:59:39;10.93;;;2.03;;
35632;SDS011;21754;48.216;-1.628;2023-04-23T01:02:05;12.68;;;1.63;;
35632;SDS011;21754;48.216;-1.628;2023-04-23T01:04:32;6.88;;;1.63;;
35632;SDS011;21754;48.216;-1.628;2023-04-23T01:06:58;8.35;;;1.90;;
35632;SDS011;21754;48.216;-1.628;2023-04-23T01:09:24;11.10;;;1.70;;
35632;SDS011;21754;48.216;-1.628;2023-04-23T01:11:56;11.23;;;1.80;;
35632;SDS011;21754;48.216;-1.628;2023-04-23T01:14:22;7.78;;;1.48;;
35632;SDS011;21754;48.216;-1.628;2023-04-23T01:16:48;8.23;;;1.67;;
35632;SDS011;21754;48.216;-1.628;2023-04-23T01:19:16;8.05;;;1.02;;
35632;SDS011;21754;48.216;-1.628;2023-04-23T01:21:42;7.40;;;1.88;;
35632;SDS011;21754;48.216;-1.628;2023-04-23T01:24:09;9.63;;;1.98;;
35632;SDS011;21754;48.216;-1.628;2023-04-23T01:26:35;8.48;;;1.63;;
35632;SDS011;21754;48.216;-1.628;2023-04-23T01:29:01;0.88;;;0.88;;
35632;SDS011;21754;48.216;-1.628;2023-04-23T01:31:27;9.02;;;1.45;;
35632;SDS011;21754;48.216;-1.628;2023-04-23T01:33:54;4.55;;;1.25;;
35632;SDS011;21754;48.216;-1.628;2023-04-23T01:36:23;4.78;;;1.88;;
35632;SDS011;21754;48.216;-1.628;2023-04-23T01:38:51;3.92;;;1.70;;
35632;SDS011;21754;48.216;-1.628;2023-04-23T01:41:17;5.50;;;1.23;;
35632;SDS011;21754;48.216;-1.628;2023-04-23T01:43:46;11.88;;;2.13;;
35632;SDS011;21754;48.216;-1.628;2023-04-23T01:46:13;3.58;;;1.30;;
35632;SDS011;21754;48.216;-1.628;2023-04-23T01:48:39;4.75;;;1.85;;
35632;SDS011;21754;48.216;-1.628;2023-04-23T01:51:05;6.57;;;2.20;;
35632;SDS011;21754;48.216;-1.628;2023-04-23T01:53:31;11.57;;;1.85;;
35632;SDS011;21754;48.216;-1.628;2023-04-23T01:55:57;8.13;;;1.98;;
35632;SDS011;21754;48.216;-1.628;2023-04-23T01:58:28;9.82;;;1.40;;
35632;SDS011;21754;48.216;-1.628;2023-04-23T02:00:54;2.05;;;1.65;;
35632;SDS011;21754;48.216;-1.628;2023-04-23T02:03:20;4.03;;;1.35;;
35632;SDS011;21754;48.216;-1.628;2023-04-23T02:05:46;7.00;;;1.25;;
35632;SDS011;21754;48.216;-1.628;2023-04-23T02:08:12;13.60;;;3.00;;
35632;SDS011;21754;48.216;-1.628;2023-04-23T02:10:41;2.55;;;1.33;;
35632;SDS011;21754;48.216;-1.628;2023-04-23T02:13:07;4.55;;;1.52;;
35632;SDS011;21754;48.216;-1.628;2023-04-23T02:15:33;9.68;;;1.42;;
35632;SDS011;21754;48.216;-1.628;2023-04-23T02:18:01;6.93;;;1.20;;
35632;SDS011;21754;48.216;-1.628;2023-04-23T02:20:27;3.05;;;1.08;;
35632;SDS011;21754;48.216;-1.628;2023-04-23T02:22:54;3.55;;;1.20;;
35632;SDS011;21754;48.216;-1.628;2023-04-23T02:25:20;2.13;;;1.33;;
35632;SDS011;21754;48.216;-1.628;2023-04-23T02:27:47;3.17;;;1.40;;
35632;SDS011;21754;48.216;-1.628;2023-04-23T02:30:13;3.05;;;1.20;;
35632;SDS011;21754;48.216;-1.628;2023-04-23T02:32:39;5.10;;;0.90;;
35632;SDS011;21754;48.216;-1.628;2023-04-23T02:35:13;6.30;;;1.40;;
35632;SDS011;21754;48.216;-1.628;2023-04-23T02:37:39;4.47;;;1.33;;
35632;SDS011;21754;48.216;-1.628;2023-04-23T02:40:05;5.78;;;1.17;;
35632;SDS011;21754;48.216;-1.628;2023-04-23T02:42:32;4.07;;;1.52;;
35632;SDS011;21754;48.216;-1.628;2023-04-23T02:45:01;7.10;;;1.33;;
35632;SDS011;21754;48.216;-1.628;2023-04-23T02:47:27;4.45;;;1.30;;
35632;SDS011;21754;48.216;-1.628;2023-04-23T02:49:54;2.17;;;1.15;;
35632;SDS011;21754;48.216;-1.628;2023-04-23T02:52:26;4.03;;;1.88;;
35632;SDS011;21754;48.216;-1.628;2023-04-23T02:54:55;2.13;;;1.08;;
35632;SDS011;21754;48.216;-1.628;2023-04-23T02:57:27;3.92;;;1.67;;
35632;SDS011;21754;48.216;-1.628;2023-04-23T02:59:53;3.03;;;1.00;;
35632;SDS011;21754;48.216;-1.628;2023-04-23T03:02:19;1.75;;;1.20;;
35632;SDS011;21754;48.216;-1.628;2023-04-23T03:04:45;7.28;;;1.73;;
35632;SDS011;21754;48.216;-1.628;2023-04-23T03:07:15;2.72;;;0.98;;
35632;SDS011;21754;48.216;-1.628;2023-04-23T03:09:41;5.45;;;1.92;;
35632;SDS011;21754;48.216;-1.628;2023-04-23T03:12:07;1.92;;;1.58;;
35632;SDS011;21754;48.216;-1.628;2023-04-23T03:14:33;5.78;;;1.00;;
35632;SDS011;21754;48.216;-1.628;2023-04-23T03:16:59;0.60;;;0.60;;
35632;SDS011;21754;48.216;-1.628;2023-04-23T03:19:26;3.25;;;1.60;;
35632;SDS011;21754;48.216;-1.628;2023-04-23T03:21:52;2.72;;;0.70;;
35632;SDS011;21754;48.216;-1.628;2023-04-23T03:24:18;2.60;;;0.90;;
35632;SDS011;21754;48.216;-1.628;2023-04-23T03:26:44;2.28;;;0.95;;
35632;SDS011;21754;48.216;-1.628;2023-04-23T03:29:10;1.27;;;0.80;;
35632;SDS011;21754;48.216;-1.628;2023-04-23T03:31:36;2.75;;;1.02;;
35632;SDS011;21754;48.216;-1.628;2023-04-23T03:34:02;7.43;;;1.50;;
35632;SDS011;21754;48.216;-1.628;2023-04-23T03:36:28;0.50;;;0.50;;
35632;SDS011;21754;48.216;-1.628;2023-04-23T03:38:54;1.55;;;0.57;;
35632;SDS011;21754;48.216;-1.628;2023-04-23T03:41:20;1.58;;;0.77;;
35632;SDS011;21754;48.216;-1.628;2023-04-23T03:43:46;0.82;;;0.55;;
35632;SDS011;21754;48.216;-1.628;2023-04-23T03:46:12;0.70;;;0.70;;
35632;SDS011;21754;48.216;-1.628;2023-04-23T03:48:38;3.60;;;0.60;;
35632;SDS011;21754;48.216;-1.628;2023-04-23T03:51:04;0.70;;;0.70;;
35632;SDS011;21754;48.216;-1.628;2023-04-23T03:53:30;3.75;;;0.75;;
35632;SDS011;21754;48.216;-1.628;2023-04-23T03:55:56;1.30;;;0.60;;
35632;SDS011;21754;48.216;-1.628;2023-04-23T03:58:25;3.95;;;0.68;;
35632;SDS011;21754;48.216;-1.628;2023-04-23T04:00:51;3.25;;;0.85;;
35632;SDS011;21754;48.216;-1.628;2023-04-23T04:03:18;1.35;;;0.60;;
35632;SDS011;21754;48.216;-1.628;2023-04-23T04:05:44;2.33;;;0.90;;
35632;SDS011;21754;48.216;-1.628;2023-04-23T04:08:10;1.80;;;0.90;;
35632;SDS011;21754;48.216;-1.628;2023-04-23T04:10:36;2.55;;;0.77;;
35632;SDS011;21754;48.216;-1.628;2023-04-23T04:13:02;5.68;;;0.68;;
35632;SDS011;21754;48.216;-1.628;2023-04-23T04:15:28;0.70;;;0.70;;
35632;SDS011;21754;48.216;-1.628;2023-04-23T04:17:56;4.40;;;1.50;;
35632;SDS011;21754;48.216;-1.628;2023-04-23T04:20:22;1.50;;;0.70;;
35632;SDS011;21754;48.216;-1.628;2023-04-23T04:22:48;0.57;;;0.50;;
35632;SDS011;21754;48.216;-1.628;2023-04-23T04:25:14;1.15;;;0.80;;
35632;SDS011;21754;48.216;-1.628;2023-04-23T04:27:40;1.02;;;1.02;;
35632;SDS011;21754;48.216;-1.628;2023-04-23T04:30:07;1.30;;;1.15;;
35632;SDS011;21754;48.216;-1.628;2023-04-23T04:32:34;3.60;;;0.57;;
35632;SDS011;21754;48.216;-1.628;2023-04-23T04:35:02;4.68;;;1.48;;
35632;SDS011;21754;48.216;-1.628;2023-04-23T04:37:29;0.77;;;0.50;;
35632;SDS011;21754;48.216;-1.628;2023-04-23T04:39:56;3.20;;;1.02;;
35632;SDS011;21754;48.216;-1.628;2023-04-23T04:42:22;5.15;;;1.05;;
35632;SDS011;21754;48.216;-1.628;2023-04-23T04:44:49;3.30;;;0.70;;
35632;SDS011;21754;48.216;-1.628;2023-04-23T04:47:17;1.23;;;0.80;;
35632;SDS011;21754;48.216;-1.628;2023-04-23T04:49:43;3.30;;;1.33;;
35632;SDS011;21754;48.216;-1.628;2023-04-23T04:52:09;1.58;;;0.90;;
35632;SDS011;21754;48.216;-1.628;2023-04-23T04:54:35;4.70;;;1.15;;
35632;SDS011;21754;48.216;-1.628;2023-04-23T04:57:01;2.88;;;1.00;;
35632;SDS011;21754;48.216;-1.628;2023-04-23T04:59:27;3.20;;;0.70;;
35632;SDS011;21754;48.216;-1.628;2023-04-23T05:01:53;4.85;;;0.82;;
35632;SDS011;21754;48.216;-1.628;2023-04-23T05:04:19;2.17;;;0.85;;
35632;SDS011;21754;48.216;-1.628;2023-04-23T05:06:48;3.05;;;0.57;;
35632;SDS011;21754;48.216;-1.628;2023-04-23T05:09:15;3.40;;;0.70;;
35632;SDS011;21754;48.216;-1.628;2023-04-23T05:11:41;5.25;;;0.80;;
35632;SDS011;21754;48.216;-1.628;2023-04-23T05:14:07;3.05;;;1.10;;
35632;SDS011;21754;48.216;-1.628;2023-04-23T05:16:33;4.28;;;0.90;;
35632;SDS011;21754;48.216;-1.628;2023-04-23T05:18:59;2.22;;;0.98;;
35632;SDS011;21754;48.216;-1.628;2023-04-23T05:21:25;4.68;;;1.10;;
35632;SDS011;21754;48.216;-1.628;2023-04-23T05:23:52;2.72;;;1.00;;
35632;SDS011;21754;48.216;-1.628;2023-04-23T05:26:18;6.72;;;1.02;;
35632;SDS011;21754;48.216;-1.628;2023-04-23T05:28:50;5.95;;;0.85;;
35632;SDS011;21754;48.216;-1.628;2023-04-23T05:31:22;10.30;;;1.70;;
35632;SDS011;21754;48.216;-1.628;2023-04-23T05:33:56;6.47;;;2.03;;
35632;SDS011;21754;48.216;-1.628;2023-04-23T05:36:21;2.83;;;1.25;;
35632;SDS011;21754;48.216;-1.628;2023-04-23T05:38:47;4.55;;;0.93;;
35632;SDS011;21754;48.216;-1.628;2023-04-23T05:41:13;7.60;;;1.15;;
35632;SDS011;21754;48.216;-1.628;2023-04-23T05:43:40;8.05;;;1.10;;
35632;SDS011;21754;48.216;-1.628;2023-04-23T05:46:06;5.20;;;1.33;;
35632;SDS011;21754;48.216;-1.628;2023-04-23T05:48:32;1.65;;;1.05;;
35632;SDS011;21754;48.216;-1.628;2023-04-23T05:50:58;5.20;;;1.05;;
35632;SDS011;21754;48.216;-1.628;2023-04-23T05:53:24;5.85;;;1.27;;
35632;SDS011;21754;48.216;-1.628;2023-04-23T05:55:51;4.22;;;1.13;;
35632;SDS011;21754;48.216;-1.628;2023-04-23T05:58:20;2.47;;;1.20;;
35632;SDS011;21754;48.216;-1.628;2023-04-23T06:00:46;5.40;;;1.42;;
35632;SDS011;21754;48.216;-1.628;2023-04-23T06:03:13;3.13;;;1.42;;
35632;SDS011;21754;48.216;-1.628;2023-04-23T06:05:46;3.63;;;1.48;;
35632;SDS011;21754;48.216;-1.628;2023-04-23T06:08:12;6.93;;;1.88;;
35632;SDS011;21754;48.216;-1.628;2023-04-23T06:10:38;2.47;;;1.77;;
35632;SDS011;21754;48.216;-1.628;2023-04-23T06:13:04;2.58;;;1.42;;
35632;SDS011;21754;48.216;-1.628;2023-04-23T06:15:30;3.63;;;1.50;;
35632;SDS011;21754;48.216;-1.628;2023-04-23T06:17:56;3.97;;;1.83;;
35632;SDS011;21754;48.216;-1.628;2023-04-23T06:20:23;4.90;;;1.80;;
35632;SDS011;21754;48.216;-1.628;2023-04-23T06:22:51;12.35;;;1.48;;
35632;SDS011;21754;48.216;-1.628;2023-04-23T06:25:17;4.32;;;1.10;;
35632;SDS011;21754;48.216;-1.628;2023-04-23T06:27:43;8.90;;;1.20;;
35632;SDS011;21754;48.216;-1.628;2023-04-23T06:30:09;2.25;;;1.17;;
35632;SDS011;21754;48.216;-1.628;2023-04-23T06:32:36;3.35;;;1.30;;
35632;SDS011;21754;48.216;-1.628;2023-04-23T06:35:05;6.95;;;1.35;;
35632;SDS011;21754;48.216;-1.628;2023-04-23T06:37:31;3.95;;;1.80;;
35632;SDS011;21754;48.216;-1.628;2023-04-23T06:39:58;7.03;;;1.30;;
35632;SDS011;21754;48.216;-1.628;2023-04-23T06:42:24;2.45;;;1.52;;
35632;SDS011;21754;48.216;-1.628;2023-04-23T06:44:59;4.70;;;1.60;;
35632;SDS011;21754;48.216;-1.628;2023-04-23T06:47:28;2.85;;;1.27;;
35632;SDS011;21754;48.216;-1.628;2023-04-23T06:49:54;1.80;;;1.38;;
35632;SDS011;21754;48.216;-1.628;2023-04-23T06:52:20;2.58;;;1.45;;
35632;SDS011;21754;48.216;-1.628;2023-04-23T06:54:46;7.15;;;1.98;;
35632;SDS011;21754;48.216;-1.628;2023-04-23T06:57:12;9.43;;;1.50;;
35632;SDS011;21754;48.216;-1.628;2023-04-23T06:59:38;11.48;;;1.55;;
35632;SDS011;21754;48.216;-1.628;2023-04-23T07:02:04;9.18;;;1.60;;
35632;SDS011;21754;48.216;-1.628;2023-04-23T07:04:30;11.00;;;2.63;;
35632;SDS011;21754;48.216;-1.628;2023-04-23T07:06:56;21.65;;;1.95;;
35632;SDS011;21754;48.216;-1.628;2023-04-23T07:09:22;8.65;;;1.73;;
35632;SDS011;21754;48.216;-1.628;2023-04-23T07:11:48;13.40;;;2.67;;
35632;SDS011;21754;48.216;-1.628;2023-04-23T07:14:15;13.23;;;1.60;;
35632;SDS011;21754;48.216;-1.628;2023-04-23T07:16:41;13.93;;;2.28;;
35632;SDS011;21754;48.216;-1.628;2023-04-23T07:19:07;18.05;;;3.50;;
35632;SDS011;21754;48.216;-1.628;2023-04-23T07:21:33;4.25;;;1.17;;
35632;SDS011;21754;48.216;-1.628;2023-04-23T07:23:59;0.30;;;0.30;;
35632;SDS011;21754;48.216;-1.628;2023-04-23T07:26:32;0.40;;;0.40;;
35632;SDS011;21754;48.216;-1.628;2023-04-23T07:28:58;0.30;;;0.30;;
35632;SDS011;21754;48.216;-1.628;2023-04-23T07:31:25;0.30;;;0.30;;
35632;SDS011;21754;48.216;-1.628;2023-04-23T07:33:51;0.30;;;0.30;;
35632;SDS011;21754;48.216;-1.628;2023-04-23T07:36:17;0.30;;;0.30;;
35632;SDS011;21754;48.216;-1.628;2023-04-23T07:38:43;0.30;;;0.30;;
35632;SDS011;21754;48.216;-1.628;2023-04-23T07:41:09;0.40;;;0.40;;
35632;SDS011;21754;48.216;-1.628;2023-04-23T07:43:35;0.30;;;0.30;;
35632;SDS011;21754;48.216;-1.628;2023-04-23T07:46:01;0.30;;;0.30;;
35632;SDS011;21754;48.216;-1.628;2023-04-23T07:48:27;0.30;;;0.30;;
35632;SDS011;21754;48.216;-1.628;2023-04-23T07:50:53;0.30;;;0.30;;
35632;SDS011;21754;48.216;-1.628;2023-04-23T07:53:19;0.40;;;0.40;;
35632;SDS011;21754;48.216;-1.628;2023-04-23T07:55:45;0.30;;;0.30;;
35632;SDS011;21754;48.216;-1.628;2023-04-23T07:58:11;0.30;;;0.30;;
35632;SDS011;21754;48.216;-1.628;2023-04-23T08:00:37;0.40;;;0.40;;
35632;SDS011;21754;48.216;-1.628;2023-04-23T08:03:03;0.30;;;0.30;;
35632;SDS011;21754;48.216;-1.628;2023-04-23T08:05:30;0.70;;;0.70;;
35632;SDS011;21754;48.216;-1.628;2023-04-23T08:07:56;0.30;;;0.30;;
35632;SDS011;21754;48.216;-1.628;2023-04-23T08:10:22;0.30;;;0.30;;
35632;SDS011;21754;48.216;-1.628;2023-04-23T08:12:48;0.30;;;0.30;;
35632;SDS011;21754;48.216;-1.628;2023-04-23T08:15:14;0.45;;;0.45;;
35632;SDS011;21754;48.216;-1.628;2023-04-23T08:17:40;0.30;;;0.30;;
35632;SDS011;21754;48.216;-1.628;2023-04-23T08:20:06;0.40;;;0.40;;
35632;SDS011;21754;48.216;-1.628;2023-04-23T08:22:32;0.40;;;0.40;;
35632;SDS011;21754;48.216;-1.628;2023-04-23T08:24:58;0.20;;;0.20;;
35632;SDS011;21754;48.216;-1.628;2023-04-23T08:27:24;0.25;;;0.25;;
35632;SDS011;21754;48.216;-1.628;2023-04-23T08:29:50;0.30;;;0.30;;
35632;SDS011;21754;48.216;-1.628;2023-04-23T08:32:16;0.30;;;0.30;;
35632;SDS011;21754;48.216;-1.628;2023-04-23T08:34:42;0.40;;;0.40;;
35632;SDS011;21754;48.216;-1.628;2023-04-23T08:37:08;0.40;;;0.40;;
35632;SDS011;21754;48.216;-1.628;2023-04-23T08:39:35;0.30;;;0.30;;
35632;SDS011;21754;48.216;-1.628;2023-04-23T08:42:04;0.30;;;0.30;;
35632;SDS011;21754;48.216;-1.628;2023-04-23T08:44:32;0.30;;;0.30;;
35632;SDS011;21754;48.216;-1.628;2023-04-23T08:47:00;0.30;;;0.30;;
35632;SDS011;21754;48.216;-1.628;2023-04-23T08:49:29;0.30;;;0.30;;
35632;SDS011;21754;48.216;-1.628;2023-04-23T08:51:57;0.40;;;0.40;;
35632;SDS011;21754;48.216;-1.628;2023-04-23T08:56:53;0.30;;;0.30;;
35632;SDS011;21754;48.216;-1.628;2023-04-23T08:59:21;0.38;;;0.38;;
35632;SDS011;21754;48.216;-1.628;2023-04-23T09:01:47;0.30;;;0.30;;
35632;SDS011;21754;48.216;-1.628;2023-04-23T09:04:13;0.40;;;0.40;;
35632;SDS011;21754;48.216;-1.628;2023-04-23T09:06:41;0.30;;;0.30;;
35632;SDS011;21754;48.216;-1.628;2023-04-23T09:09:08;0.32;;;0.32;;
35632;SDS011;21754;48.216;-1.628;2023-04-23T09:11:35;0.35;;;0.35;;
35632;SDS011;21754;48.216;-1.628;2023-04-23T09:16:28;0.30;;;0.30;;
35632;SDS011;21754;48.216;-1.628;2023-04-23T09:18:54;0.52;;;0.50;;
35632;SDS011;21754;48.216;-1.628;2023-04-23T09:21:20;0.40;;;0.40;;
35632;SDS011;21754;48.216;-1.628;2023-04-23T09:23:49;0.30;;;0.30;;
35632;SDS011;21754;48.216;-1.628;2023-04-23T09:26:19;0.38;;;0.38;;
35632;SDS011;21754;48.216;-1.628;2023-04-23T09:28:48;0.47;;;0.47;;
35632;SDS011;21754;48.216;-1.628;2023-04-23T09:31:24;0.30;;;0.30;;
35632;SDS011;21754;48.216;-1.628;2023-04-23T09:33:53;0.30;;;0.30;;
35632;SDS011;21754;48.216;-1.628;2023-04-23T09:36:20;0.30;;;0.30;;
35632;SDS011;21754;48.216;-1.628;2023-04-23T09:38:51;0.20;;;0.20;;
35632;SDS011;21754;48.216;-1.628;2023-04-23T09:41:25;0.40;;;0.40;;
35632;SDS011;21754;48.216;-1.628;2023-04-23T09:43:55;0.30;;;0.30;;
35632;SDS011;21754;48.216;-1.628;2023-04-23T09:46:37;0.35;;;0.35;;
35632;SDS011;21754;48.216;-1.628;2023-04-23T09:49:04;0.20;;;0.20;;
35632;SDS011;21754;48.216;-1.628;2023-04-23T09:51:39;0.20;;;0.20;;
35632;SDS011;21754;48.216;-1.628;2023-04-23T09:54:12;0.25;;;0.25;;
35632;SDS011;21754;48.216;-1.628;2023-04-23T09:56:40;0.22;;;0.22;;
35632;SDS011;21754;48.216;-1.628;2023-04-23T09:59:22;0.30;;;0.30;;
35632;SDS011;21754;48.216;-1.628;2023-04-23T10:01:48;0.22;;;0.22;;
35632;SDS011;21754;48.216;-1.628;2023-04-23T10:04:18;0.43;;;0.43;;
35632;SDS011;21754;48.216;-1.628;2023-04-23T10:06:45;0.38;;;0.38;;
35632;SDS011;21754;48.216;-1.628;2023-04-23T10:09:11;0.30;;;0.30;;
35632;SDS011;21754;48.216;-1.628;2023-04-23T10:11:37;0.30;;;0.30;;
35632;SDS011;21754;48.216;-1.628;2023-04-23T10:14:04;0.30;;;0.30;;
35632;SDS011;21754;48.216;-1.628;2023-04-23T10:16:30;3.20;;;1.52;;
35632;SDS011;21754;48.216;-1.628;2023-04-23T10:18:56;0.50;;;0.50;;
35632;SDS011;21754;48.216;-1.628;2023-04-23T10:21:25;2.55;;;1.95;;
35632;SDS011;21754;48.216;-1.628;2023-04-23T10:23:52;0.30;;;0.30;;
35632;SDS011;21754;48.216;-1.628;2023-04-23T10:26:19;0.20;;;0.20;;
35632;SDS011;21754;48.216;-1.628;2023-04-23T10:28:48;0.38;;;0.38;;
35632;SDS011;21754;48.216;-1.628;2023-04-23T10:31:15;1.08;;;0.40;;
35632;SDS011;21754;48.216;-1.628;2023-04-23T10:33:42;1.42;;;1.33;;
35632;SDS011;21754;48.216;-1.628;2023-04-23T10:36:08;0.20;;;0.20;;
35632;SDS011;21754;48.216;-1.628;2023-04-23T10:38:35;0.30;;;0.30;;
35632;SDS011;21754;48.216;-1.628;2023-04-23T10:41:01;3.50;;;1.85;;
35632;SDS011;21754;48.216;-1.628;2023-04-23T10:43:27;0.75;;;0.75;;
35632;SDS011;21754;48.216;-1.628;2023-04-23T10:45:53;0.30;;;0.30;;
35632;SDS011;21754;48.216;-1.628;2023-04-23T10:48:19;8.27;;;0.75;;
35632;SDS011;21754;48.216;-1.628;2023-04-23T10:50:46;1.13;;;1.10;;
35632;SDS011;21754;48.216;-1.628;2023-04-23T10:53:18;0.30;;;0.30;;
35632;SDS011;21754;48.216;-1.628;2023-04-23T10:55:47;0.93;;;0.88;;
35632;SDS011;21754;48.216;-1.628;2023-04-23T10:58:14;0.30;;;0.30;;
35632;SDS011;21754;48.216;-1.628;2023-04-23T11:05:51;0.30;;;0.30;;
35632;SDS011;21754;48.216;-1.628;2023-04-23T11:08:18;0.30;;;0.30;;
35632;SDS011;21754;48.216;-1.628;2023-04-23T11:10:54;0.22;;;0.22;;
35632;SDS011;21754;48.216;-1.628;2023-04-23T11:13:21;0.38;;;0.38;;
35632;SDS011;21754;48.216;-1.628;2023-04-23T11:15:48;0.95;;;0.50;;
35632;SDS011;21754;48.216;-1.628;2023-04-23T11:18:14;1.33;;;1.23;;
35632;SDS011;21754;48.216;-1.628;2023-04-23T11:20:40;0.30;;;0.30;;
35632;SDS011;21754;48.216;-1.628;2023-04-23T11:23:06;1.27;;;0.55;;
35632;SDS011;21754;48.216;-1.628;2023-04-23T11:25:32;0.25;;;0.25;;
35632;SDS011;21754;48.216;-1.628;2023-04-23T11:28:00;0.30;;;0.30;;
35632;SDS011;21754;48.216;-1.628;2023-04-23T11:30:27;0.38;;;0.38;;
35632;SDS011;21754;48.216;-1.628;2023-04-23T11:32:54;0.30;;;0.30;;
35632;SDS011;21754;48.216;-1.628;2023-04-23T11:35:21;0.30;;;0.30;;
35632;SDS011;21754;48.216;-1.628;2023-04-23T11:37:47;0.40;;;0.40;;
35632;SDS011;21754;48.216;-1.628;2023-04-23T11:40:14;0.38;;;0.38;;
35632;SDS011;21754;48.216;-1.628;2023-04-23T11:42:53;0.20;;;0.20;;
35632;SDS011;21754;48.216;-1.628;2023-04-23T11:45:20;0.20;;;0.20;;
35632;SDS011;21754;48.216;-1.628;2023-04-23T11:47:47;0.30;;;0.30;;
35632;SDS011;21754;48.216;-1.628;2023-04-23T11:50:21;1.40;;;1.30;;
35632;SDS011;21754;48.216;-1.628;2023-04-23T11:52:47;0.20;;;0.20;;
35632;SDS011;21754;48.216;-1.628;2023-04-23T11:55:13;0.30;;;0.30;;
35632;SDS011;21754;48.216;-1.628;2023-04-23T11:57:41;0.30;;;0.30;;
35632;SDS011;21754;48.216;-1.628;2023-04-23T12:00:17;0.20;;;0.20;;
35632;SDS011;21754;48.216;-1.628;2023-04-23T12:02:56;0.30;;;0.30;;
35632;SDS011;21754;48.216;-1.628;2023-04-23T12:05:26;0.30;;;0.30;;
35632;SDS011;21754;48.216;-1.628;2023-04-23T12:07:52;0.35;;;0.35;;
35632;SDS011;21754;48.216;-1.628;2023-04-23T12:10:22;0.43;;;0.43;;
35632;SDS011;21754;48.216;-1.628;2023-04-23T12:12:49;0.20;;;0.20;;
35632;SDS011;21754;48.216;-1.628;2023-04-23T12:15:15;0.30;;;0.30;;
35632;SDS011;21754;48.216;-1.628;2023-04-23T12:17:41;0.20;;;0.20;;
35632;SDS011;21754;48.216;-1.628;2023-04-23T12:20:15;0.20;;;0.20;;
35632;SDS011;21754;48.216;-1.628;2023-04-23T12:22:41;0.20;;;0.20;;
35632;SDS011;21754;48.216;-1.628;2023-04-23T12:25:07;0.30;;;0.30;;
35632;SDS011;21754;48.216;-1.628;2023-04-23T12:27:37;0.22;;;0.22;;
35632;SDS011;21754;48.216;-1.628;2023-04-23T12:30:04;0.30;;;0.30;;
35632;SDS011;21754;48.216;-1.628;2023-04-23T12:32:32;0.40;;;0.40;;
35632;SDS011;21754;48.216;-1.628;2023-04-23T12:34:58;0.30;;;0.30;;
35632;SDS011;21754;48.216;-1.628;2023-04-23T12:37:24;0.30;;;0.30;;
35632;SDS011;21754;48.216;-1.628;2023-04-23T12:39:51;0.30;;;0.30;;
35632;SDS011;21754;48.216;-1.628;2023-04-23T12:42:19;0.30;;;0.30;;
35632;SDS011;21754;48.216;-1.628;2023-04-23T12:44:45;0.38;;;0.38;;
35632;SDS011;21754;48.216;-1.628;2023-04-23T12:47:11;0.30;;;0.30;;
35632;SDS011;21754;48.216;-1.628;2023-04-23T12:49:41;0.20;;;0.20;;
35632;SDS011;21754;48.216;-1.628;2023-04-23T12:52:08;0.30;;;0.30;;
35632;SDS011;21754;48.216;-1.628;2023-04-23T12:54:35;0.35;;;0.35;;
35632;SDS011;21754;48.216;-1.628;2023-04-23T12:57:01;0.30;;;0.30;;
35632;SDS011;21754;48.216;-1.628;2023-04-23T12:59:28;0.30;;;0.30;;
35632;SDS011;21754;48.216;-1.628;2023-04-23T13:01:54;0.30;;;0.30;;
35632;SDS011;21754;48.216;-1.628;2023-04-23T13:04:20;0.28;;;0.28;;
35632;SDS011;21754;48.216;-1.628;2023-04-23T13:06:46;0.30;;;0.30;;
35632;SDS011;21754;48.216;-1.628;2023-04-23T13:09:12;0.32;;;0.32;;
35632;SDS011;21754;48.216;-1.628;2023-04-23T13:11:38;0.20;;;0.20;;
35632;SDS011;21754;48.216;-1.628;2023-04-23T13:14:04;0.30;;;0.30;;
35632;SDS011;21754;48.216;-1.628;2023-04-23T13:16:30;0.30;;;0.30;;
35632;SDS011;21754;48.216;-1.628;2023-04-23T13:18:57;0.30;;;0.30;;
35632;SDS011;21754;48.216;-1.628;2023-04-23T13:21:23;0.30;;;0.30;;
35632;SDS011;21754;48.216;-1.628;2023-04-23T13:23:49;0.30;;;0.30;;
35632;SDS011;21754;48.216;-1.628;2023-04-23T13:26:15;0.30;;;0.30;;
35632;SDS011;21754;48.216;-1.628;2023-04-23T13:28:41;0.40;;;0.40;;
35632;SDS011;21754;48.216;-1.628;2023-04-23T13:31:07;0.30;;;0.30;;
35632;SDS011;21754;48.216;-1.628;2023-04-23T13:33:35;0.30;;;0.30;;
35632;SDS011;21754;48.216;-1.628;2023-04-23T13:36:01;0.40;;;0.40;;
35632;SDS011;21754;48.216;-1.628;2023-04-23T13:38:28;0.20;;;0.20;;
35632;SDS011;21754;48.216;-1.628;2023-04-23T13:40:54;0.30;;;0.30;;
35632;SDS011;21754;48.216;-1.628;2023-04-23T13:43:20;0.30;;;0.30;;
35632;SDS011;21754;48.216;-1.628;2023-04-23T13:45:46;0.20;;;0.20;;
35632;SDS011;21754;48.216;-1.628;2023-04-23T13:48:15;0.50;;;0.50;;
35632;SDS011;21754;48.216;-1.628;2023-04-23T13:50:41;0.30;;;0.30;;
35632;SDS011;21754;48.216;-1.628;2023-04-23T13:53:08;0.30;;;0.30;;
35632;SDS011;21754;48.216;-1.628;2023-04-23T13:55:35;0.30;;;0.30;;
35632;SDS011;21754;48.216;-1.628;2023-04-23T13:58:01;0.30;;;0.30;;
35632;SDS011;21754;48.216;-1.628;2023-04-23T14:00:28;0.50;;;0.50;;
35632;SDS011;21754;48.216;-1.628;2023-04-23T14:02:54;3.53;;;0.98;;
35632;SDS011;21754;48.216;-1.628;2023-04-23T14:05:20;0.40;;;0.40;;
35632;SDS011;21754;48.216;-1.628;2023-04-23T14:07:46;0.20;;;0.20;;
35632;SDS011;21754;48.216;-1.628;2023-04-23T14:10:12;0.30;;;0.30;;
35632;SDS011;21754;48.216;-1.628;2023-04-23T14:12:42;0.20;;;0.20;;
35632;SDS011;21754;48.216;-1.628;2023-04-23T14:15:09;0.30;;;0.30;;
35632;SDS011;21754;48.216;-1.628;2023-04-23T14:17:36;0.20;;;0.20;;
35632;SDS011;21754;48.216;-1.628;2023-04-23T14:22:29;0.30;;;0.30;;
35632;SDS011;21754;48.216;-1.628;2023-04-23T14:24:56;0.73;;;0.73;;
35632;SDS011;21754;48.216;-1.628;2023-04-23T14:27:26;0.50;;;0.50;;
35632;SDS011;21754;48.216;-1.628;2023-04-23T14:32:21;0.50;;;0.50;;
35632;SDS011;21754;48.216;-1.628;2023-04-23T14:34:47;0.80;;;0.63;;
35632;SDS011;21754;48.216;-1.628;2023-04-23T14:37:13;0.40;;;0.40;;
35632;SDS011;21754;48.216;-1.628;2023-04-23T14:39:41;0.30;;;0.30;;
35632;SDS011;21754;48.216;-1.628;2023-04-23T14:42:07;0.20;;;0.20;;
35632;SDS011;21754;48.216;-1.628;2023-04-23T14:44:33;0.30;;;0.30;;
35632;SDS011;21754;48.216;-1.628;2023-04-23T14:46:59;0.88;;;0.82;;